Time;durP1;ratioP1;P1;durP2;ratioP2;P2;SDS_P1;SDS_P2;PMS_P1;PMS_P2;Temp;Humidity;BMP_temperature;BMP_pressure;BME280_temperature;BME280_humidity;BME280_pressure;Samples;Min_cycle;Max_cycle;Signal;HPM_P1;HPM_P2
2022/01/27 00:00:38;;;;;;;42.27;20.40;;;1.40;99.90;;;;;;4943922;29;20543;-66
2022/01/27 00:05:52;;;;;;;40.33;20.63;;;1.50;99.90;;;;;;4952682;28;20488;-66
2022/01/27 00:08:26;;;;;;;45.63;22.87;;;1.50;99.90;;;;;;4953256;28;20436;-67
2022/01/27 00:10:55;;;;;;;47.83;21.27;;;1.50;99.90;;;;;;4951295;29;20436;-66
2022/01/27 00:13:28;;;;;;;48.50;21.47;;;1.50;99.90;;;;;;4952782;29;20448;-67
2022/01/27 00:16:12;;;;;;;44.00;21.83;;;1.50;99.90;;;;;;4952824;28;20499;-66
2022/01/27 00:18:39;;;;;;;37.67;20.70;;;1.60;99.90;;;;;;4952822;28;20832;-66
2022/01/27 00:21:04;;;;;;;40.63;21.47;;;1.60;99.90;;;;;;4953223;29;20909;-66
2022/01/27 00:23:30;;;;;;;47.00;21.87;;;1.50;99.90;;;;;;4953069;29;20488;-66
2022/01/27 00:25:56;;;;;;;42.17;22.40;;;1.50;99.90;;;;;;4952620;29;20205;-66
2022/01/27 00:28:21;;;;;;;40.70;20.60;;;1.60;99.90;;;;;;4952928;29;20177;-66
2022/01/27 00:30:47;;;;;;;45.50;21.50;;;1.60;99.90;;;;;;4952818;29;20209;-66
2022/01/27 00:33:12;;;;;;;41.30;22.27;;;1.60;99.90;;;;;;4952740;29;20691;-66
2022/01/27 00:35:38;;;;;;;37.80;20.93;;;1.60;99.90;;;;;;4952776;29;20188;-66
2022/01/27 00:38:04;;;;;;;38.40;20.13;;;1.60;99.90;;;;;;4953169;29;20218;-66
2022/01/27 00:40:30;;;;;;;41.40;21.80;;;1.60;99.90;;;;;;4952707;29;20220;-66
2022/01/27 00:42:56;;;;;;;36.90;20.33;;;1.60;99.90;;;;;;4952616;29;20201;-66
2022/01/27 00:45:23;;;;;;;36.23;20.83;;;1.30;99.90;;;;;;4952595;28;20460;-66
2022/01/27 00:47:49;;;;;;;40.60;21.60;;;1.20;99.90;;;;;;4956239;29;20483;-67
2022/01/27 00:50:17;;;;;;;41.97;21.20;;;1.20;99.90;;;;;;4956010;29;20445;-66
2022/01/27 00:52:48;;;;;;;46.37;24.50;;;1.20;99.90;;;;;;4955990;29;20191;-66
2022/01/27 00:55:14;;;;;;;41.10;22.67;;;1.30;99.90;;;;;;4955328;29;20812;-67
2022/01/27 01:00:09;;;;;;;37.70;21.53;;;1.40;99.90;;;;;;4955869;29;20436;-66
2022/01/27 01:07:52;;;;;;;44.03;21.17;;;1.50;99.90;;;;;;4955534;29;20432;-66
2022/01/27 01:15:39;;;;;;;43.83;20.87;;;1.40;99.90;;;;;;4955333;29;20475;-67
2022/01/27 01:21:15;;;;;;;39.77;21.10;;;1.50;99.90;;;;;;4955849;29;20636;-66
2022/01/27 01:36:56;;;;;;;47.57;23.60;;;1.40;99.90;;;;;;4955173;29;20655;-67
2022/01/27 01:39:26;;;;;;;42.73;22.57;;;1.30;99.90;;;;;;4955000;29;20211;-67
2022/01/27 01:41:51;;;;;;;44.03;20.67;;;1.20;99.90;;;;;;4955240;28;20557;-67
2022/01/27 01:44:17;;;;;;;45.43;23.20;;;1.20;99.90;;;;;;4955340;28;20634;-66
2022/01/27 01:46:43;;;;;;;38.97;21.97;;;1.30;99.90;;;;;;4954322;29;20682;-66
2022/01/27 01:49:09;;;;;;;43.90;22.57;;;1.30;99.90;;;;;;4955007;29;20440;-66
2022/01/27 01:51:36;;;;;;;48.00;21.50;;;1.30;99.90;;;;;;4955067;29;20195;-66
2022/01/27 01:54:03;;;;;;;47.43;21.73;;;1.30;99.90;;;;;;4954492;29;20199;-67
2022/01/27 01:56:29;;;;;;;41.47;22.70;;;1.30;99.90;;;;;;4954550;29;20523;-67
2022/01/27 01:58:54;;;;;;;49.47;22.40;;;1.30;99.90;;;;;;4953899;28;20495;-66
2022/01/27 02:01:20;;;;;;;46.40;23.03;;;1.40;99.90;;;;;;4954737;29;20187;-66
2022/01/27 02:03:47;;;;;;;43.07;21.50;;;1.50;99.90;;;;;;4954459;29;20671;-67
2022/01/27 02:06:20;;;;;;;47.63;20.60;;;1.50;99.90;;;;;;4954365;28;20461;-66
2022/01/27 02:09:10;;;;;;;44.93;23.03;;;1.40;99.90;;;;;;4946410;29;20436;-66
2022/01/27 02:19:54;;;;;;;44.97;22.13;;;1.30;99.90;;;;;;4954376;29;20803;-67
2022/01/27 02:22:20;;;;;;;47.30;21.70;;;1.30;99.90;;;;;;4954524;29;20461;-67
2022/01/27 02:24:47;;;;;;;47.87;23.17;;;1.10;99.90;;;;;;4954508;29;20439;-67
2022/01/27 02:27:14;;;;;;;45.70;23.30;;;1.10;99.90;;;;;;4954034;29;20460;-66
2022/01/27 02:29:40;;;;;;;49.90;23.70;;;1.20;99.90;;;;;;4954000;29;20452;-67
2022/01/27 02:32:07;;;;;;;40.10;22.70;;;1.30;99.90;;;;;;4954224;29;20950;-66
2022/01/27 02:34:33;;;;;;;55.70;24.67;;;1.20;99.90;;;;;;4954290;28;20882;-66
2022/01/27 02:36:58;;;;;;;44.27;23.17;;;1.30;99.90;;;;;;4953865;29;20523;-66
2022/01/27 02:39:24;;;;;;;44.67;23.70;;;1.30;99.90;;;;;;4952969;29;20205;-67
2022/01/27 02:41:49;;;;;;;45.27;22.77;;;1.30;99.90;;;;;;4954326;29;20569;-67
2022/01/27 02:44:31;;;;;;;46.83;23.07;;;1.20;99.90;;;;;;4953989;29;20193;-67
2022/01/27 02:46:57;;;;;;;41.37;22.60;;;1.10;99.90;;;;;;4953341;29;20208;-67
2022/01/27 02:49:23;;;;;;;39.67;24.23;;;1.20;99.90;;;;;;4953684;29;20443;-66
2022/01/27 02:51:48;;;;;;;33.37;21.73;;;1.00;99.90;;;;;;4954250;29;20181;-66
2022/01/27 02:54:14;;;;;;;42.43;24.47;;;0.90;99.90;;;;;;4954071;29;20224;-66
2022/01/27 02:56:44;;;;;;;38.00;22.80;;;0.90;99.90;;;;;;4953332;29;20211;-66
2022/01/27 02:59:10;;;;;;;40.90;23.57;;;0.80;99.90;;;;;;4953808;29;20181;-66
2022/01/27 03:01:36;;;;;;;39.47;22.93;;;0.80;99.90;;;;;;4953342;29;20954;-67
2022/01/27 03:04:01;;;;;;;41.60;24.53;;;0.80;99.90;;;;;;4953888;29;20496;-66
2022/01/27 03:06:27;;;;;;;40.90;24.13;;;0.80;99.90;;;;;;4953141;29;20642;-67
2022/01/27 03:08:52;;;;;;;44.60;24.73;;;0.80;99.90;;;;;;4953413;28;20181;-66
2022/01/27 03:11:52;;;;;;;39.77;23.50;;;0.80;99.90;;;;;;4953773;29;20176;-67
2022/01/27 03:14:22;;;;;;;33.47;22.57;;;0.90;99.90;;;;;;4939623;29;20208;-67
2022/01/27 03:16:48;;;;;;;41.10;23.80;;;1.10;99.90;;;;;;4953275;29;20439;-66
2022/01/27 03:19:14;;;;;;;37.87;22.33;;;1.10;99.90;;;;;;4953419;29;20958;-67
2022/01/27 03:21:40;;;;;;;39.43;22.77;;;1.10;99.90;;;;;;4953473;28;20977;-67
2022/01/27 03:24:07;;;;;;;42.40;22.87;;;1.20;99.90;;;;;;4953617;29;20452;-66
2022/01/27 03:26:33;;;;;;;41.23;22.23;;;1.10;99.90;;;;;;4953164;29;20807;-67
2022/01/27 03:28:59;;;;;;;43.37;24.20;;;1.10;99.90;;;;;;4953574;29;20520;-67
2022/01/27 03:31:26;;;;;;;35.93;23.00;;;1.20;99.90;;;;;;4953374;29;20443;-67
2022/01/27 03:33:51;;;;;;;34.33;21.20;;;1.30;99.90;;;;;;4953714;29;20460;-66
2022/01/27 03:36:17;;;;;;;40.63;22.30;;;1.30;99.90;;;;;;4953328;29;20596;-66
2022/01/27 03:38:42;;;;;;;41.13;22.83;;;1.30;99.90;;;;;;4953576;29;20615;-66
2022/01/27 03:41:09;;;;;;;37.73;21.20;;;1.30;99.90;;;;;;4953379;29;20184;-66
2022/01/27 03:43:37;;;;;;;38.53;21.70;;;1.30;99.90;;;;;;4953344;29;20239;-66
2022/01/27 03:46:05;;;;;;;36.67;21.23;;;1.40;99.90;;;;;;4953177;29;21079;-66
2022/01/27 03:48:31;;;;;;;40.00;21.37;;;1.40;99.90;;;;;;4953359;29;20436;-67
2022/01/27 03:50:56;;;;;;;36.43;21.87;;;1.50;99.90;;;;;;4953160;29;20523;-67
2022/01/27 03:53:22;;;;;;;35.13;22.40;;;1.40;99.90;;;;;;4953276;29;20550;-66
2022/01/27 03:55:48;;;;;;;38.47;21.00;;;1.30;99.90;;;;;;4953298;29;20240;-66
2022/01/27 03:58:14;;;;;;;34.00;21.90;;;1.20;99.90;;;;;;4952849;29;20200;-66
2022/01/27 04:00:40;;;;;;;35.57;20.07;;;1.20;99.90;;;;;;4953169;29;20181;-67
2022/01/27 04:03:09;;;;;;;34.43;21.30;;;1.20;99.90;;;;;;4953040;29;20483;-67
2022/01/27 04:05:38;;;;;;;38.97;21.97;;;1.20;99.90;;;;;;4952558;29;20500;-68
2022/01/27 04:08:06;;;;;;;32.60;20.57;;;1.10;99.90;;;;;;4953255;29;20438;-67
2022/01/27 04:10:32;;;;;;;31.57;18.67;;;1.10;99.90;;;;;;4952842;29;20424;-68
2022/01/27 04:12:57;;;;;;;38.80;22.50;;;1.20;99.90;;;;;;4952849;29;21049;-67
2022/01/27 04:15:23;;;;;;;31.73;20.43;;;1.20;99.90;;;;;;4952854;29;20440;-67
2022/01/27 04:17:49;;;;;;;36.53;21.10;;;1.10;99.90;;;;;;4952595;29;20185;-67
2022/01/27 04:20:15;;;;;;;34.70;21.17;;;1.10;99.90;;;;;;4952824;28;20503;-67
2022/01/27 04:22:41;;;;;;;41.63;23.03;;;1.00;99.90;;;;;;4956352;29;20603;-68
2022/01/27 04:25:07;;;;;;;38.50;22.70;;;0.90;99.90;;;;;;4956078;29;20206;-67
2022/01/27 04:27:36;;;;;;;40.50;22.60;;;0.80;99.90;;;;;;4956840;29;20173;-67
2022/01/27 04:30:05;;;;;;;41.43;22.73;;;0.70;99.90;;;;;;4943089;29;20438;-67
2022/01/27 04:32:38;;;;;;;37.47;22.70;;;0.70;99.90;;;;;;4956139;29;20468;-67
2022/01/27 04:35:06;;;;;;;34.80;22.20;;;0.70;99.90;;;;;;4956448;29;21013;-68
2022/01/27 04:37:37;;;;;;;39.73;23.20;;;0.70;99.90;;;;;;4956495;28;20444;-67
2022/01/27 04:40:13;;;;;;;38.27;22.53;;;0.70;99.90;;;;;;4956591;29;20432;-68
2022/01/27 04:45:09;;;;;;;41.60;24.50;;;0.60;99.90;;;;;;4949415;29;20449;-67
2022/01/27 04:47:41;;;;;;;37.67;21.60;;;0.50;99.90;;;;;;4948778;29;20437;-68
2022/01/27 04:50:07;;;;;;;43.80;25.80;;;0.40;99.90;;;;;;4956106;29;20448;-68
2022/01/27 04:52:36;;;;;;;38.13;22.47;;;0.40;99.90;;;;;;4955805;28;20507;-67
2022/01/27 04:55:06;;;;;;;46.00;24.70;;;0.30;99.90;;;;;;4955777;29;20472;-68
2022/01/27 04:57:33;;;;;;;37.80;21.40;;;0.30;99.90;;;;;;4955690;29;20429;-67
2022/01/27 04:59:59;;;;;;;45.37;24.40;;;0.20;99.90;;;;;;4955927;29;20438;-67
2022/01/27 05:04:55;;;;;;;39.00;23.10;;;0.40;99.90;;;;;;4955334;29;20432;-67
2022/01/27 05:07:21;;;;;;;39.70;24.30;;;0.40;99.90;;;;;;4953558;29;20538;-67
2022/01/27 05:09:54;;;;;;;37.93;23.20;;;0.50;99.90;;;;;;4949955;29;20196;-68
2022/01/27 05:12:33;;;;;;;41.23;23.63;;;0.50;99.90;;;;;;4955591;29;20264;-68
2022/01/27 05:15:00;;;;;;;42.97;23.97;;;0.50;99.90;;;;;;4955792;29;20494;-67
2022/01/27 05:17:26;;;;;;;46.63;27.20;;;0.50;99.90;;;;;;4954066;28;20432;-67
2022/01/27 05:19:51;;;;;;;39.13;24.60;;;0.50;99.90;;;;;;4955450;29;20468;-68
2022/01/27 05:22:17;;;;;;;37.30;23.03;;;0.50;99.90;;;;;;4937589;29;20527;-67
2022/01/27 05:24:43;;;;;;;36.77;22.40;;;0.60;99.90;;;;;;4949892;29;20626;-68
2022/01/27 05:27:09;;;;;;;38.00;23.60;;;0.60;99.90;;;;;;4954967;29;20507;-68
2022/01/27 05:29:34;;;;;;;40.27;23.53;;;0.60;99.90;;;;;;4955508;29;20173;-67
2022/01/27 05:32:00;;;;;;;33.50;21.00;;;0.50;99.90;;;;;;4955231;28;20181;-68
2022/01/27 05:34:25;;;;;;;38.47;22.17;;;0.60;99.90;;;;;;4954865;29;20204;-68
2022/01/27 05:36:51;;;;;;;40.10;21.73;;;0.50;99.90;;;;;;4955190;29;20215;-67
2022/01/27 05:39:16;;;;;;;39.50;21.20;;;0.50;99.90;;;;;;4955022;29;20263;-68
2022/01/27 05:41:42;;;;;;;45.87;24.60;;;0.30;99.90;;;;;;4953890;29;20272;-68
2022/01/27 05:44:08;;;;;;;37.17;22.60;;;0.30;99.90;;;;;;4955452;29;20735;-68
2022/01/27 05:46:34;;;;;;;39.73;24.33;;;0.30;99.90;;;;;;4954674;29;20547;-68
2022/01/27 05:48:59;;;;;;;34.07;20.90;;;0.30;99.90;;;;;;4954666;29;20656;-68
2022/01/27 05:51:25;;;;;;;38.70;23.00;;;0.40;99.90;;;;;;4954687;29;20193;-67
2022/01/27 05:53:50;;;;;;;38.60;22.77;;;0.50;99.90;;;;;;4954957;29;20201;-68
2022/01/27 05:56:16;;;;;;;37.07;21.90;;;0.60;99.90;;;;;;4950388;29;20184;-68
2022/01/27 05:58:41;;;;;;;43.40;24.20;;;0.70;99.90;;;;;;4954393;29;20185;-68
2022/01/27 06:01:07;;;;;;;39.00;23.47;;;0.80;99.90;;;;;;4954490;29;20191;-68
2022/01/27 06:03:32;;;;;;;38.90;21.40;;;0.70;99.90;;;;;;4954548;29;20212;-68
2022/01/27 06:05:58;;;;;;;39.80;22.73;;;0.40;99.90;;;;;;4954549;29;20794;-68
2022/01/27 06:08:25;;;;;;;38.93;22.47;;;0.40;99.90;;;;;;4954950;29;20231;-68
2022/01/27 06:10:51;;;;;;;40.13;22.17;;;0.40;99.90;;;;;;4954716;29;20177;-67
2022/01/27 06:13:16;;;;;;;38.73;23.20;;;0.40;99.90;;;;;;4954333;29;20503;-67
2022/01/27 06:15:42;;;;;;;41.57;24.70;;;0.40;99.90;;;;;;4954748;29;20177;-67
2022/01/27 06:18:08;;;;;;;44.67;25.47;;;0.40;99.90;;;;;;4951570;29;20594;-69
2022/01/27 06:20:33;;;;;;;41.00;23.17;;;0.40;99.90;;;;;;4954031;29;20188;-68
2022/01/27 06:22:59;;;;;;;46.47;22.37;;;0.50;99.90;;;;;;4954569;29;20612;-68
2022/01/27 06:25:26;;;;;;;44.17;24.03;;;0.60;99.90;;;;;;4954617;29;20212;-67
2022/01/27 06:27:52;;;;;;;35.17;21.20;;;0.60;99.90;;;;;;4954282;28;20196;-67
2022/01/27 06:30:18;;;;;;;33.90;19.80;;;0.60;99.90;;;;;;4954589;29;20440;-66
2022/01/27 06:32:44;;;;;;;34.60;21.63;;;0.50;99.90;;;;;;4954377;29;20981;-66
2022/01/27 06:35:09;;;;;;;41.37;23.10;;;0.40;99.90;;;;;;4953751;29;20192;-67
2022/01/27 06:37:36;;;;;;;40.17;22.53;;;0.40;99.90;;;;;;4953546;28;20623;-67
2022/01/27 06:40:04;;;;;;;41.97;22.67;;;0.50;99.90;;;;;;4954752;29;20191;-67
2022/01/27 06:42:29;;;;;;;39.20;22.90;;;0.70;99.90;;;;;;4953656;29;20460;-67
2022/01/27 06:44:55;;;;;;;39.90;22.00;;;0.70;99.90;;;;;;4953699;28;20432;-67
2022/01/27 06:47:20;;;;;;;40.70;22.50;;;0.80;99.90;;;;;;4953716;29;20232;-66
2022/01/27 06:49:46;;;;;;;36.97;22.30;;;0.80;99.90;;;;;;4954074;29;20184;-67
2022/01/27 06:52:12;;;;;;;33.97;20.67;;;0.70;99.90;;;;;;4953651;29;20602;-67
2022/01/27 06:54:37;;;;;;;37.50;21.80;;;0.60;99.90;;;;;;4953794;29;20711;-67
2022/01/27 06:57:05;;;;;;;30.20;20.73;;;0.60;99.90;;;;;;4953820;29;20272;-67
2022/01/27 06:59:31;;;;;;;40.37;22.10;;;0.60;99.90;;;;;;4953620;29;20215;-67
2022/01/27 07:01:56;;;;;;;40.07;21.47;;;0.60;99.90;;;;;;4954063;29;20484;-67
2022/01/27 07:04:22;;;;;;;39.63;21.70;;;0.50;99.90;;;;;;4953648;29;20200;-67
2022/01/27 07:06:49;;;;;;;33.70;19.23;;;0.60;99.90;;;;;;4952892;29;20200;-66
2022/01/27 07:09:14;;;;;;;31.30;19.27;;;0.60;99.90;;;;;;4948072;29;20176;-67
2022/01/27 07:11:40;;;;;;;35.13;19.97;;;0.70;99.90;;;;;;4952380;29;20849;-67
2022/01/27 07:14:05;;;;;;;36.70;21.70;;;0.50;99.90;;;;;;4952996;29;20255;-63
2022/01/27 07:16:33;;;;;;;42.77;22.53;;;0.40;99.90;;;;;;4952500;29;20183;-66
2022/01/27 07:18:59;;;;;;;30.70;18.47;;;0.60;99.90;;;;;;4952917;29;20181;-66
2022/01/27 07:21:24;;;;;;;34.67;20.17;;;0.60;99.90;;;;;;4953563;29;20436;-66
2022/01/27 07:23:50;;;;;;;35.90;19.83;;;0.60;99.90;;;;;;4953617;29;20200;-66
2022/01/27 07:26:16;;;;;;;32.93;18.70;;;0.70;99.90;;;;;;4953001;29;20212;-66
2022/01/27 07:28:42;;;;;;;30.63;19.40;;;0.80;99.90;;;;;;4953202;28;20173;-66
2022/01/27 07:31:07;;;;;;;32.47;20.23;;;0.70;99.90;;;;;;4952833;29;20935;-66
2022/01/27 07:33:33;;;;;;;34.93;18.80;;;0.80;99.90;;;;;;4953014;29;20459;-67
2022/01/27 07:35:58;;;;;;;31.00;19.20;;;0.80;99.90;;;;;;4936630;29;20193;-67
2022/01/27 07:38:26;;;;;;;33.13;20.10;;;0.80;99.90;;;;;;4926608;29;20192;-67
2022/01/27 07:40:52;;;;;;;35.03;19.83;;;0.70;99.90;;;;;;4952576;29;20555;-67
2022/01/27 07:43:18;;;;;;;33.97;19.10;;;0.70;99.90;;;;;;4952567;28;20466;-67
2022/01/27 07:45:44;;;;;;;31.93;16.67;;;0.70;99.90;;;;;;4949661;29;20615;-67
2022/01/27 07:48:09;;;;;;;26.93;17.47;;;0.70;99.90;;;;;;4953348;29;20204;-67
2022/01/27 07:50:35;;;;;;;29.20;17.17;;;0.60;99.90;;;;;;4952942;29;20177;-67
2022/01/27 07:53:00;;;;;;;28.60;17.17;;;0.60;99.90;;;;;;4953092;29;20201;-67
2022/01/27 07:55:26;;;;;;;27.33;16.90;;;0.80;99.90;;;;;;4943444;29;20296;-67
2022/01/27 07:57:52;;;;;;;25.10;16.10;;;0.80;99.90;;;;;;4957103;29;20173;-66
2022/01/27 08:00:18;;;;;;;27.53;16.73;;;0.90;99.90;;;;;;4956632;28;20188;-66
2022/01/27 08:02:45;;;;;;;31.00;16.87;;;0.90;99.90;;;;;;4956626;29;20571;-65
2022/01/27 08:05:11;;;;;;;25.53;15.33;;;0.90;99.90;;;;;;4953562;29;20594;-66
2022/01/27 08:07:36;;;;;;;32.10;18.23;;;0.90;99.90;;;;;;4956244;29;20451;-66
2022/01/27 08:10:02;;;;;;;29.97;16.73;;;0.80;99.90;;;;;;4956519;29;20801;-66
2022/01/27 08:12:28;;;;;;;28.87;16.33;;;0.80;99.90;;;;;;4956092;29;20830;-65
2022/01/27 08:14:53;;;;;;;33.90;19.53;;;0.90;99.90;;;;;;4955941;29;20177;-66
2022/01/27 08:17:19;;;;;;;35.33;20.30;;;0.90;99.90;;;;;;4953310;29;20189;-66
2022/01/27 08:19:44;;;;;;;33.77;19.30;;;0.90;99.90;;;;;;4956657;29;20569;-66
2022/01/27 08:22:13;;;;;;;34.30;20.60;;;0.90;99.90;;;;;;4956615;29;20223;-66
2022/01/27 08:24:38;;;;;;;34.70;18.93;;;1.00;99.90;;;;;;4950831;29;20648;-66
2022/01/27 08:27:06;;;;;;;42.77;20.73;;;1.00;99.90;;;;;;4952825;29;20467;-65
2022/01/27 08:29:38;;;;;;;36.67;19.80;;;1.00;99.90;;;;;;4956336;29;20452;-66
2022/01/27 08:32:07;;;;;;;34.03;18.57;;;1.10;99.90;;;;;;4956203;29;20454;-66
2022/01/27 08:34:36;;;;;;;35.47;18.50;;;1.00;99.90;;;;;;4954849;29;20443;-66
2022/01/27 08:37:05;;;;;;;31.57;18.17;;;1.10;99.90;;;;;;4952636;29;20498;-66
2022/01/27 08:39:31;;;;;;;34.17;16.83;;;1.10;99.90;;;;;;4949860;29;20447;-65
2022/01/27 08:41:57;;;;;;;36.53;19.13;;;1.10;99.90;;;;;;4955790;29;20515;-67
2022/01/27 08:44:23;;;;;;;28.53;18.40;;;1.00;99.90;;;;;;4947899;28;20551;-66
2022/01/27 08:46:49;;;;;;;34.33;18.20;;;1.00;99.90;;;;;;4946829;28;20207;-66
2022/01/27 08:49:14;;;;;;;31.20;16.73;;;1.10;99.90;;;;;;4952827;29;20177;-66
2022/01/27 08:51:41;;;;;;;34.73;18.63;;;1.10;99.90;;;;;;4952968;28;20459;-66
2022/01/27 08:54:06;;;;;;;33.40;17.33;;;0.80;99.90;;;;;;4952602;29;20207;-66
2022/01/27 08:56:32;;;;;;;27.23;15.77;;;0.80;99.90;;;;;;4952650;29;20436;-66
2022/01/27 08:58:57;;;;;;;31.77;17.53;;;0.60;99.90;;;;;;4952044;29;20200;-65
2022/01/27 09:01:26;;;;;;;33.80;18.13;;;0.60;99.90;;;;;;4952451;29;20212;-66
2022/01/27 09:03:52;;;;;;;33.80;17.27;;;0.60;99.90;;;;;;4951860;28;20212;-66
2022/01/27 09:06:19;;;;;;;30.13;17.50;;;0.60;99.90;;;;;;4957375;28;20834;-66
2022/01/27 09:08:48;;;;;;;28.03;16.93;;;0.70;99.90;;;;;;4954699;29;20176;-65
2022/01/27 09:11:14;;;;;;;26.50;15.53;;;0.70;99.90;;;;;;4955401;28;20797;-66
2022/01/27 09:13:41;;;;;;;29.70;16.80;;;0.80;99.90;;;;;;4954172;29;20464;-66
2022/01/27 09:16:08;;;;;;;30.77;18.53;;;0.80;99.90;;;;;;4955044;29;20192;-66
2022/01/27 09:18:34;;;;;;;37.03;18.57;;;0.80;99.90;;;;;;4955811;29;21013;-66
2022/01/27 09:21:03;;;;;;;30.03;16.20;;;0.70;99.90;;;;;;4955521;29;20444;-66
2022/01/27 09:23:29;;;;;;;32.97;18.50;;;1.00;99.90;;;;;;4955231;28;20199;-66
2022/01/27 09:26:03;;;;;;;28.90;17.83;;;1.90;99.90;;;;;;4954824;29;20502;-67
2022/01/27 09:28:28;;;;;;;28.63;14.77;;;3.20;99.90;;;;;;4954843;29;20805;-66
2022/01/27 09:30:56;;;;;;;29.03;17.30;;;4.50;99.90;;;;;;4955097;29;20428;-66
2022/01/27 09:33:21;;;;;;;28.63;15.20;;;5.00;99.90;;;;;;4954731;29;20603;-65
2022/01/27 09:35:47;;;;;;;31.77;17.07;;;4.20;99.90;;;;;;4953955;28;20425;-66
2022/01/27 09:38:13;;;;;;;34.07;19.70;;;3.50;99.90;;;;;;4954840;29;20429;-65
2022/01/27 09:40:38;;;;;;;27.73;15.73;;;2.90;99.90;;;;;;4954607;29;20228;-65
2022/01/27 09:43:05;;;;;;;28.83;15.47;;;2.60;99.90;;;;;;4954485;29;20555;-66
2022/01/27 09:45:36;;;;;;;24.00;13.87;;;2.40;99.90;;;;;;4954168;28;20177;-66
2022/01/27 09:48:12;;;;;;;19.30;12.57;;;2.10;99.90;;;;;;4945362;28;20444;-66
2022/01/27 09:53:10;;;;;;;24.17;12.97;;;1.90;99.90;;;;;;4954557;29;20452;-66
2022/01/27 09:55:36;;;;;;;24.47;13.33;;;1.80;99.90;;;;;;4953999;28;20809;-67
2022/01/27 09:58:03;;;;;;;18.83;12.50;;;1.90;99.90;;;;;;4940588;28;20445;-66
2022/01/27 10:00:28;;;;;;;19.37;12.43;;;1.70;99.90;;;;;;4950757;29;20456;-67
2022/01/27 10:03:06;;;;;;;21.63;11.87;;;1.70;99.90;;;;;;4947375;29;20540;-66
2022/01/27 10:05:33;;;;;;;20.83;11.23;;;1.80;99.90;;;;;;4942545;29;20191;-65
2022/01/27 10:08:17;;;;;;;19.70;12.00;;;1.90;99.90;;;;;;4950765;28;20440;-65
2022/01/27 10:10:46;;;;;;;26.13;13.77;;;1.80;99.90;;;;;;4951448;29;20968;-66
2022/01/27 10:13:35;;;;;;;21.07;11.47;;;1.80;99.90;;;;;;4950910;29;21149;-65
2022/01/27 10:16:01;;;;;;;21.43;12.53;;;1.80;99.90;;;;;;4950893;28;20531;-66
2022/01/27 10:18:34;;;;;;;18.83;12.50;;;1.80;99.90;;;;;;4950095;28;20519;-65
2022/01/27 10:21:05;;;;;;;21.53;13.03;;;1.90;99.90;;;;;;4951259;29;20243;-66
2022/01/27 10:23:33;;;;;;;23.40;13.60;;;1.80;99.90;;;;;;4951165;29;20459;-66
2022/01/27 10:26:11;;;;;;;21.83;12.00;;;1.90;99.90;;;;;;4950837;29;20456;-65
2022/01/27 10:28:44;;;;;;;18.20;10.73;;;1.90;99.90;;;;;;4944564;29;20432;-65
2022/01/27 10:31:23;;;;;;;17.00;10.80;;;2.00;99.90;;;;;;4949475;29;20436;-65
2022/01/27 10:33:52;;;;;;;16.73;10.80;;;1.80;99.90;;;;;;4950989;29;20452;-65
2022/01/27 10:36:33;;;;;;;16.07;10.00;;;1.80;99.90;;;;;;4950252;29;20439;-66
2022/01/27 10:39:01;;;;;;;19.33;11.80;;;1.80;99.90;;;;;;4950750;29;20858;-65
2022/01/27 10:41:29;;;;;;;17.27;10.00;;;1.90;99.90;;;;;;4950417;29;20539;-66
2022/01/27 10:44:16;;;;;;;19.30;10.27;;;1.90;99.90;;;;;;4950066;29;20488;-65
2022/01/27 10:47:04;;;;;;;17.73;10.43;;;2.00;99.90;;;;;;4950294;29;20510;-65
2022/01/27 10:49:33;;;;;;;17.43;11.23;;;2.10;99.90;;;;;;4950527;29;20852;-65
2022/01/27 10:51:58;;;;;;;18.30;10.00;;;2.10;99.90;;;;;;4950431;28;20936;-66
2022/01/27 10:57:03;;;;;;;17.20;10.33;;;2.30;99.90;;;;;;4950524;29;20185;-66
2022/01/27 10:59:32;;;;;;;16.77;10.10;;;2.40;99.90;;;;;;4944563;29;20432;-65
2022/01/27 11:01:58;;;;;;;19.50;10.57;;;2.50;99.90;;;;;;4948457;29;20502;-66
2022/01/27 11:04:34;;;;;;;15.13;9.63;;;2.50;99.90;;;;;;4950106;28;21158;-65
2022/01/27 11:07:02;;;;;;;19.40;9.80;;;2.50;99.90;;;;;;4949819;29;20496;-65
2022/01/27 11:09:33;;;;;;;19.40;11.30;;;2.40;99.90;;;;;;4950511;29;21054;-65
2022/01/27 11:11:59;;;;;;;25.93;12.27;;;2.40;99.90;;;;;;4950946;28;20428;-65
2022/01/27 11:14:25;;;;;;;15.97;9.33;;;2.60;99.90;;;;;;4952908;28;20808;-66
2022/01/27 11:16:56;;;;;;;17.00;10.30;;;2.60;99.90;;;;;;4951980;29;21125;-67
2022/01/27 11:22:24;;;;;;;13.90;9.10;;;2.50;99.90;;;;;;4949021;29;20472;-68
2022/01/27 11:27:26;;;;;;;19.00;11.57;;;2.30;99.90;;;;;;4944625;29;20468;-69
2022/01/27 11:30:00;;;;;;;18.30;10.90;;;2.30;99.90;;;;;;4952789;28;20482;-67
2022/01/27 11:32:38;;;;;;;18.70;10.87;;;2.40;99.90;;;;;;4952975;29;21021;-67
2022/01/27 11:35:23;;;;;;;17.70;11.23;;;2.40;99.90;;;;;;4940882;29;20467;-67
2022/01/27 11:37:54;;;;;;;23.23;11.63;;;2.20;99.90;;;;;;4941553;29;20599;-68
2022/01/27 11:40:24;;;;;;;23.50;13.17;;;2.10;99.90;;;;;;4945680;29;20571;-66
2022/01/27 11:42:55;;;;;;;22.03;12.37;;;2.20;99.90;;;;;;4950070;28;20452;-66
2022/01/27 11:45:21;;;;;;;24.80;11.83;;;2.30;99.90;;;;;;4949151;29;20437;-66
2022/01/27 11:48:14;;;;;;;21.13;12.70;;;2.30;99.90;;;;;;4949498;29;20432;-66
2022/01/27 11:53:30;;;;;;;22.70;12.17;;;2.40;99.90;;;;;;4949920;28;20452;-66
2022/01/27 11:55:58;;;;;;;21.57;12.50;;;2.50;99.90;;;;;;4948746;29;20436;-66
2022/01/27 11:58:25;;;;;;;19.80;12.83;;;2.60;99.90;;;;;;4949728;29;20519;-66
2022/01/27 12:01:14;;;;;;;18.50;11.67;;;2.60;99.90;;;;;;4949239;29;20551;-66
2022/01/27 12:04:00;;;;;;;20.10;11.83;;;2.60;99.90;;;;;;4947206;29;20475;-66
2022/01/27 12:06:25;;;;;;;20.57;13.33;;;2.40;99.90;;;;;;4947072;29;20460;-66
2022/01/27 12:09:17;;;;;;;23.20;12.70;;;2.50;99.90;;;;;;4945664;29;20429;-65
2022/01/27 12:11:57;;;;;;;21.37;12.20;;;2.50;99.90;;;;;;4949915;28;20177;-66
2022/01/27 12:14:25;;;;;;;21.73;13.00;;;2.50;99.90;;;;;;4947938;29;20456;-66
2022/01/27 12:17:20;;;;;;;23.53;13.00;;;2.50;99.90;;;;;;4945205;29;20983;-67
2022/01/27 12:19:59;;;;;;;19.30;11.47;;;2.50;99.90;;;;;;4949172;29;20444;-66
2022/01/27 12:22:50;;;;;;;22.20;13.50;;;2.70;99.90;;;;;;4949105;29;20471;-67
2022/01/27 12:25:16;;;;;;;26.00;12.50;;;2.80;99.90;;;;;;4948546;28;20972;-67
2022/01/27 12:27:50;;;;;;;24.97;14.90;;;2.80;99.90;;;;;;4950016;28;20590;-67
2022/01/27 12:30:15;;;;;;;19.73;12.37;;;2.90;99.90;;;;;;4949653;29;20502;-67
2022/01/27 12:32:41;;;;;;;24.07;12.00;;;3.00;99.90;;;;;;4946354;29;20950;-67
2022/01/27 12:35:17;;;;;;;21.23;14.30;;;3.10;99.90;;;;;;4949017;29;20505;-67
2022/01/27 12:37:46;;;;;;;19.00;12.13;;;3.10;99.90;;;;;;4949655;29;20184;-67
2022/01/27 12:40:21;;;;;;;18.70;12.77;;;3.10;99.90;;;;;;4949555;29;20583;-67
2022/01/27 12:42:57;;;;;;;15.97;11.37;;;3.00;99.90;;;;;;4945559;29;20455;-67
2022/01/27 12:45:27;;;;;;;19.37;11.90;;;3.00;99.90;;;;;;4946297;28;20968;-67
2022/01/27 12:47:53;;;;;;;21.30;12.97;;;3.00;99.90;;;;;;4952860;29;20451;-67
2022/01/27 12:50:22;;;;;;;23.53;14.27;;;3.10;99.90;;;;;;4951365;28;20428;-67
2022/01/27 12:52:51;;;;;;;20.73;12.03;;;3.20;99.90;;;;;;4952853;29;20464;-66
2022/01/27 12:55:20;;;;;;;21.63;13.80;;;3.20;99.90;;;;;;4952665;28;20491;-66
2022/01/27 12:57:57;;;;;;;19.20;12.73;;;3.30;99.90;;;;;;4953001;28;20440;-67
2022/01/27 13:00:24;;;;;;;18.17;12.40;;;3.40;99.90;;;;;;4952846;28;20447;-66
2022/01/27 13:02:49;;;;;;;19.53;14.27;;;3.50;99.90;;;;;;4952318;29;20835;-67
2022/01/27 13:05:15;;;;;;;18.77;12.20;;;3.50;99.90;;;;;;4951930;29;20489;-66
2022/01/27 13:07:43;;;;;;;15.30;11.60;;;3.60;99.90;;;;;;4952392;29;20204;-66
2022/01/27 13:10:15;;;;;;;19.20;12.23;;;3.60;99.90;;;;;;4952549;28;20172;-66
2022/01/27 13:12:53;;;;;;;20.70;11.90;;;3.60;99.90;;;;;;4952373;28;20489;-66
2022/01/27 13:15:22;;;;;;;22.80;11.60;;;3.50;99.90;;;;;;4951782;29;20499;-66
2022/01/27 13:17:53;;;;;;;19.10;11.70;;;3.50;99.90;;;;;;4951337;29;20432;-67
2022/01/27 13:20:34;;;;;;;19.43;11.00;;;3.50;99.90;;;;;;4952593;28;20452;-66
2022/01/27 13:23:09;;;;;;;19.73;11.50;;;3.60;99.90;;;;;;4951714;28;20511;-66
2022/01/27 13:25:41;;;;;;;19.70;11.33;;;3.80;99.90;;;;;;4951585;28;20843;-66
2022/01/27 13:28:29;;;;;;;18.83;12.07;;;3.90;99.90;;;;;;4952276;28;20510;-66
2022/01/27 13:30:59;;;;;;;19.37;11.73;;;3.90;99.90;;;;;;4951645;28;20472;-66
2022/01/27 13:33:26;;;;;;;19.93;12.40;;;4.00;99.90;;;;;;4952017;29;20472;-66
2022/01/27 13:35:54;;;;;;;23.27;11.97;;;4.10;99.90;;;;;;4951304;28;20517;-66
2022/01/27 13:38:28;;;;;;;19.17;11.00;;;4.00;99.90;;;;;;4951996;28;20527;-66
2022/01/27 13:41:20;;;;;;;18.10;11.07;;;4.00;99.90;;;;;;4951957;29;20446;-67
2022/01/27 13:43:47;;;;;;;15.83;10.70;;;4.00;99.90;;;;;;4952182;29;20456;-66